Time;durP1;ratioP1;P1;durP2;ratioP2;P2;SDS_P1;SDS_P2;PMS_P1;PMS_P2;Temp;Humidity;BMP_temperature;BMP_pressure;BME280_temperature;BME280_humidity;BME280_pressure;Samples;Min_cycle;Max_cycle;Signal;HPM_P1;HPM_P2
2023/09/16 00:01:48;;;;;;;6.90;3.60;;;;;;;11.10;87.09;97253.83;111676;1244;22632;-76
2023/09/16 00:04:17;;;;;;;6.30;4.30;;;;;;;11.06;87.72;97249.83;111720;1244;22564;-76
2023/09/16 00:06:46;;;;;;;5.70;3.60;;;;;;;11.08;88.24;97246.60;111757;1244;22500;-77
2023/09/16 00:09:16;;;;;;;7.60;4.20;;;;;;;11.14;88.74;97245.44;111667;1244;22515;-77
2023/09/16 00:11:45;;;;;;;7.50;3.80;;;;;;;11.20;88.87;97242.89;111720;1244;22501;-77
2023/09/16 00:14:13;;;;;;;8.00;3.60;;;;;;;11.27;89.05;97240.55;111697;1244;22499;-77
2023/09/16 00:16:42;;;;;;;4.50;3.30;;;;;;;11.33;88.74;97242.56;111722;1244;24240;-77
2023/09/16 00:19:10;;;;;;;7.10;3.20;;;;;;;11.25;87.78;97243.99;111691;1244;25253;-77
2023/09/16 00:21:39;;;;;;;4.20;3.30;;;;;;;11.13;87.37;97243.80;111737;1244;22506;-77
2023/09/16 00:24:11;;;;;;;5.30;2.90;;;;;;;10.92;87.32;97238.10;111710;1244;23445;-77
2023/09/16 00:26:39;;;;;;;5.80;3.70;;;;;;;10.85;87.79;97233.70;111726;1244;22498;-77
2023/09/16 00:29:08;;;;;;;5.50;3.70;;;;;;;10.84;87.90;97240.86;111720;1244;25324;-76
2023/09/16 00:31:36;;;;;;;4.90;3.20;;;;;;;10.86;88.23;97238.42;111705;1244;22654;-77
2023/09/16 00:34:05;;;;;;;4.60;3.40;;;;;;;10.74;87.94;97237.93;111726;1244;22698;-77
2023/09/16 00:36:33;;;;;;;5.30;3.40;;;;;;;10.66;88.29;97237.05;111691;1244;22499;-77
2023/09/16 00:39:01;;;;;;;4.40;3.30;;;;;;;10.70;88.81;97234.20;111713;1244;22519;-77
2023/09/16 00:41:29;;;;;;;5.40;3.00;;;;;;;10.73;88.60;97238.62;111723;1244;22801;-77
2023/09/16 00:44:00;;;;;;;5.60;3.40;;;;;;;10.54;88.43;97234.39;111725;1244;22566;-77
2023/09/16 00:46:28;;;;;;;4.00;3.30;;;;;;;10.46;89.15;97232.80;111714;1244;22528;-77
2023/09/16 00:48:59;;;;;;;6.30;3.20;;;;;;;10.48;89.60;97229.72;111695;1244;27240;-77
2023/09/16 00:51:28;;;;;;;5.20;3.20;;;;;;;10.57;89.79;97233.98;111738;1244;22526;-77
2023/09/16 00:53:56;;;;;;;;;;;;;;;10.65;89.62;97231.44;111778;1244;22479;-77
2023/09/16 00:56:30;;;;;;;5.00;2.70;;;;;;;10.62;89.30;97229.33;111706;1244;22506;-77
2023/09/16 00:59:00;;;;;;;4.00;2.90;;;;;;;10.59;89.34;97227.20;111679;1244;22481;-77
2023/09/16 01:01:31;;;;;;;5.60;3.10;;;;;;;10.59;89.40;97224.91;111699;1244;22627;-77
2023/09/16 01:04:00;;;;;;;5.30;3.20;;;;;;;10.66;89.63;97220.62;111702;1244;22593;-78
2023/09/16 01:06:30;;;;;;;5.60;3.40;;;;;;;10.68;89.41;97221.73;111732;1244;22471;-77
2023/09/16 01:08:59;;;;;;;7.10;3.10;;;;;;;10.68;89.38;97217.39;111726;1244;22510;-77
2023/09/16 01:11:28;;;;;;;3.70;2.90;;;;;;;10.72;89.50;97219.05;111705;1244;22488;-78
2023/09/16 01:13:58;;;;;;;4.70;2.60;;;;;;;10.76;89.35;97218.79;111712;1244;22675;-77
2023/09/16 01:16:35;;;;;;;4.80;3.20;;;;;;;10.81;89.16;97217.19;111732;1244;25279;-77
2023/09/16 01:19:14;;;;;;;5.50;3.10;;;;;;;10.85;89.24;97217.16;111726;1244;25389;-78
2023/09/16 01:21:44;;;;;;;5.50;3.50;;;;;;;10.73;88.99;97217.13;111723;1244;22951;-77
2023/09/16 01:24:18;;;;;;;6.40;3.10;;;;;;;10.53;89.05;97215.36;111730;1244;22506;-78
2023/09/16 01:26:48;;;;;;;6.30;3.30;;;;;;;10.38;89.40;97215.11;111733;1244;22768;-78
2023/09/16 01:29:21;;;;;;;5.60;3.60;;;;;;;10.33;89.86;97214.58;111724;1244;22830;-77
2023/09/16 01:31:49;;;;;;;6.30;3.50;;;;;;;10.33;90.23;97213.83;111695;1244;22505;-77
2023/09/16 01:34:25;;;;;;;6.10;3.40;;;;;;;10.37;90.41;97211.23;111724;1244;22840;-77
2023/09/16 01:36:58;;;;;;;5.00;3.30;;;;;;;10.43;90.47;97205.54;111709;1244;22814;-77
2023/09/16 01:39:29;;;;;;;6.30;3.40;;;;;;;10.48;90.54;97202.41;111695;1244;22535;-77
2023/09/16 01:42:00;;;;;;;5.60;3.70;;;;;;;10.54;90.50;97202.25;111699;1244;22499;-77
2023/09/16 01:44:29;;;;;;;5.20;3.20;;;;;;;10.54;90.61;97202.73;111747;1244;22578;-78
2023/09/16 01:46:58;;;;;;;4.80;2.70;;;;;;;10.56;90.67;97203.16;111721;1244;22501;-77
2023/09/16 01:49:28;;;;;;;5.90;3.60;;;;;;;10.54;90.17;97199.45;111702;1244;22536;-77
2023/09/16 01:51:57;;;;;;;4.50;3.20;;;;;;;10.48;90.33;97200.29;111710;1244;22512;-77
2023/09/16 01:54:27;;;;;;;5.60;3.20;;;;;;;10.48;90.42;97202.84;111741;1244;26441;-77
2023/09/16 01:56:56;;;;;;;4.00;3.10;;;;;;;10.41;90.15;97199.85;111774;1244;22505;-77
2023/09/16 01:59:24;;;;;;;5.70;3.50;;;;;;;10.23;90.12;97199.73;111671;1244;22655;-77
2023/09/16 02:01:58;;;;;;;5.40;3.30;;;;;;;10.18;90.75;97199.40;111741;1244;22514;-77
2023/09/16 02:04:28;;;;;;;4.90;3.30;;;;;;;10.24;91.16;97200.17;111750;1244;22528;-77
2023/09/16 02:06:59;;;;;;;5.50;3.20;;;;;;;10.29;91.15;97203.34;111741;1244;22502;-77
2023/09/16 02:09:28;;;;;;;6.80;3.60;;;;;;;10.31;90.91;97203.71;111744;1244;24255;-77
2023/09/16 02:11:56;;;;;;;5.50;3.30;;;;;;;10.19;90.56;97201.59;111742;1244;22605;-77
2023/09/16 02:14:24;;;;;;;6.30;3.70;;;;;;;10.02;90.43;97197.86;111687;1244;22492;-77
2023/09/16 02:16:56;;;;;;;5.50;3.30;;;;;;;9.85;90.85;97195.89;111736;1244;22489;-77
2023/09/16 02:19:25;;;;;;;4.00;3.10;;;;;;;9.77;91.28;97197.02;111698;1244;22517;-77
2023/09/16 02:21:54;;;;;;;4.80;3.00;;;;;;;9.80;91.77;97195.48;111737;1244;25501;-77
2023/09/16 02:24:22;;;;;;;6.00;3.50;;;;;;;9.78;91.74;97195.86;111748;1244;23751;-77
2023/09/16 02:26:50;;;;;;;5.10;3.50;;;;;;;9.69;91.94;97195.71;111726;1244;22521;-77
2023/09/16 02:29:18;;;;;;;6.50;3.80;;;;;;;9.66;92.51;97192.78;111710;1244;22513;-77
2023/09/16 02:31:46;;;;;;;6.30;3.40;;;;;;;9.68;92.81;97194.48;111586;1244;22496;-77
2023/09/16 02:34:15;;;;;;;4.90;3.20;;;;;;;9.68;92.92;97195.80;111718;1244;22516;-77
2023/09/16 02:36:44;;;;;;;5.10;3.60;;;;;;;9.66;93.03;97197.71;111714;1244;22544;-77
2023/09/16 02:39:12;;;;;;;4.50;3.20;;;;;;;9.70;93.40;97195.91;111741;1244;23203;-77
2023/09/16 02:41:40;;;;;;;6.40;3.10;;;;;;;9.75;93.56;97200.41;111753;1244;22498;-77
2023/09/16 02:44:09;;;;;;;4.00;3.00;;;;;;;9.78;93.80;97201.48;111768;1244;22505;-77
2023/09/16 02:46:38;;;;;;;5.70;3.00;;;;;;;9.84;94.07;97199.02;111788;1244;24194;-77
2023/09/16 02:49:06;;;;;;;5.10;3.10;;;;;;;9.87;93.86;97195.60;111735;1244;23547;-77
2023/09/16 02:51:34;;;;;;;4.40;3.00;;;;;;;9.94;94.13;97197.88;111720;1244;22517;-77
2023/09/16 02:54:04;;;;;;;5.10;2.60;;;;;;;10.02;94.15;97197.50;111756;1244;25376;-77
2023/09/16 02:56:33;;;;;;;4.90;3.00;;;;;;;10.10;94.04;97195.81;111761;1244;24205;-77
2023/09/16 02:59:01;;;;;;;4.60;3.00;;;;;;;10.12;93.77;97193.23;111716;1244;24395;-77
2023/09/16 03:01:30;;;;;;;5.20;3.40;;;;;;;10.07;93.37;97194.59;111723;1244;22509;-77
2023/09/16 03:03:59;;;;;;;5.30;3.20;;;;;;;9.93;93.05;97193.27;111746;1244;22505;-77
2023/09/16 03:06:27;;;;;;;5.70;3.10;;;;;;;9.78;93.28;97191.15;111734;1244;22985;-77
2023/09/16 03:08:56;;;;;;;5.90;3.20;;;;;;;9.75;93.98;97186.48;111745;1244;22639;-77
2023/09/16 03:11:24;;;;;;;4.50;2.70;;;;;;;9.73;94.16;97185.94;111724;1244;22488;-77
2023/09/16 03:13:54;;;;;;;5.20;3.30;;;;;;;9.75;94.41;97185.95;111741;1244;22478;-77
2023/09/16 03:16:31;;;;;;;4.00;2.70;;;;;;;9.79;94.68;97184.21;111731;1244;25251;-77
2023/09/16 03:18:59;;;;;;;5.00;3.20;;;;;;;9.80;94.67;97185.06;111746;1244;23906;-77
2023/09/16 03:21:28;;;;;;;4.20;3.10;;;;;;;9.78;94.49;97186.12;111749;1244;24199;-77
2023/09/16 03:23:57;;;;;;;5.40;3.00;;;;;;;9.77;94.59;97187.17;111752;1244;22538;-77
2023/09/16 03:26:27;;;;;;;5.80;2.70;;;;;;;9.83;94.63;97187.72;111750;1244;24662;-77
2023/09/16 03:28:59;;;;;;;5.20;3.60;;;;;;;9.92;94.80;97188.87;111719;1244;24181;-77
2023/09/16 03:31:27;;;;;;;5.90;3.40;;;;;;;9.98;94.85;97188.09;111739;1244;22574;-78
2023/09/16 03:33:58;;;;;;;5.20;3.30;;;;;;;9.94;94.63;97184.59;111731;1244;22511;-77
2023/09/16 03:36:29;;;;;;;5.90;3.20;;;;;;;9.97;94.86;97186.34;111748;1244;23915;-77
2023/09/16 03:38:57;;;;;;;4.20;2.90;;;;;;;10.02;94.84;97186.85;111718;1244;23820;-77
2023/09/16 03:41:26;;;;;;;4.80;2.90;;;;;;;10.05;94.58;97188.70;111752;1244;22488;-77
2023/09/16 03:43:54;;;;;;;5.40;3.00;;;;;;;10.07;94.67;97190.35;111779;1244;22476;-77
2023/09/16 03:46:24;;;;;;;4.50;3.00;;;;;;;10.07;94.45;97189.09;111748;1244;25231;-77
2023/09/16 03:48:52;;;;;;;4.20;3.00;;;;;;;10.02;94.50;97188.45;111750;1244;22495;-77
2023/09/16 03:51:23;;;;;;;6.20;3.00;;;;;;;9.98;94.65;97179.90;111780;1244;22502;-76
2023/09/16 03:53:51;;;;;;;6.50;3.20;;;;;;;9.95;94.84;97187.39;111748;1244;22611;-77
2023/09/16 03:56:19;;;;;;;5.00;3.40;;;;;;;9.96;95.20;97183.00;111754;1244;22976;-77
2023/09/16 03:58:48;;;;;;;6.00;3.40;;;;;;;9.99;95.50;97181.48;111715;1244;24194;-75
2023/09/16 04:01:18;;;;;;;5.50;3.40;;;;;;;10.09;96.31;97182.73;111744;1244;25222;-75
2023/09/16 04:03:46;;;;;;;5.50;3.60;;;;;;;10.19;96.39;97188.55;111766;1244;22562;-76
2023/09/16 04:06:15;;;;;;;5.50;3.20;;;;;;;10.25;96.30;97186.77;111749;1244;22547;-76
2023/09/16 04:08:43;;;;;;;5.40;3.60;;;;;;;10.24;96.02;97184.01;111706;1244;25220;-76
2023/09/16 04:11:12;;;;;;;6.10;3.40;;;;;;;10.20;95.78;97186.21;111748;1244;22488;-76
2023/09/16 04:13:41;;;;;;;7.30;3.40;;;;;;;10.14;95.73;97183.55;111722;1244;22518;-76
2023/09/16 04:16:10;;;;;;;5.40;3.80;;;;;;;10.09;95.90;97179.49;111738;1244;22520;-76
2023/09/16 04:18:40;;;;;;;6.10;3.40;;;;;;;10.04;96.06;97182.19;111746;1244;22505;-76
2023/09/16 04:21:08;;;;;;;5.90;3.80;;;;;;;10.02;96.34;97178.05;111743;1244;22520;-76
2023/09/16 04:23:37;;;;;;;5.90;3.30;;;;;;;10.03;96.47;97177.21;111773;1244;22496;-76
2023/09/16 04:26:08;;;;;;;5.40;4.10;;;;;;;10.04;96.68;97173.14;111759;1244;22502;-76
2023/09/16 04:28:36;;;;;;;6.00;3.60;;;;;;;10.10;96.91;97172.51;111739;1244;24267;-76
2023/09/16 04:31:04;;;;;;;6.90;3.70;;;;;;;10.25;97.13;97169.87;111761;1244;23130;-76
2023/09/16 04:33:33;;;;;;;7.30;3.90;;;;;;;10.48;97.25;97170.81;111758;1244;24348;-76
2023/09/16 04:36:03;;;;;;;6.10;3.80;;;;;;;10.74;97.22;97171.88;111759;1244;25270;-76
2023/09/16 04:38:32;;;;;;;4.00;3.00;;;;;;;10.99;97.09;97167.70;111749;1244;22950;-77
2023/09/16 04:41:00;;;;;;;5.30;3.10;;;;;;;11.23;96.63;97164.33;111780;1244;22537;-76
2023/09/16 04:43:29;;;;;;;5.40;3.30;;;;;;;11.48;96.32;97160.44;111752;1244;25327;-76
2023/09/16 04:45:58;;;;;;;5.50;3.40;;;;;;;11.74;95.67;97161.27;111776;1244;22606;-76
2023/09/16 04:48:28;;;;;;;5.40;3.20;;;;;;;11.87;95.20;97160.17;111740;1244;22664;-76
2023/09/16 04:50:59;;;;;;;3.60;2.60;;;;;;;12.06;94.92;97163.23;111757;1244;23438;-76
2023/09/16 04:53:31;;;;;;;4.00;2.80;;;;;;;12.27;94.67;97161.41;111763;1244;26466;-76
2023/09/16 04:56:00;;;;;;;5.00;2.80;;;;;;;12.52;94.52;97165.23;111813;1244;24388;-76
2023/09/16 04:58:28;;;;;;;4.50;3.10;;;;;;;12.80;94.22;97167.95;111742;1244;23158;-76
2023/09/16 05:01:00;;;;;;;5.50;3.10;;;;;;;13.07;93.52;97167.77;111744;1244;22538;-77
2023/09/16 05:03:28;;;;;;;3.20;2.70;;;;;;;13.24;92.79;97171.55;111760;1244;24701;-77
2023/09/16 05:05:59;;;;;;;3.20;2.50;;;;;;;13.52;92.61;97173.98;111775;1244;22517;-76
2023/09/16 05:08:37;;;;;;;4.10;2.30;;;;;;;14.00;92.27;97175.45;111750;1244;22520;-76
2023/09/16 05:11:06;;;;;;;3.60;2.70;;;;;;;14.52;92.05;97174.75;111760;1244;22521;-76
2023/09/16 05:13:35;;;;;;;5.20;2.90;;;;;;;15.00;90.92;97178.94;111750;1244;22505;-77
2023/09/16 05:16:03;;;;;;;3.70;2.60;;;;;;;15.40;90.09;97176.10;111745;1244;22513;-76
2023/09/16 05:18:32;;;;;;;5.10;3.00;;;;;;;15.85;89.00;97172.23;111738;1244;22508;-77
2023/09/16 05:21:01;;;;;;;3.50;2.70;;;;;;;16.34;88.08;97173.45;111760;1244;25179;-76
2023/09/16 05:23:30;;;;;;;4.20;2.80;;;;;;;16.57;86.80;97171.23;111788;1228;22492;-77
2023/09/16 05:25:58;;;;;;;4.00;2.40;;;;;;;16.98;86.33;97173.05;111742;1244;24361;-77
2023/09/16 05:28:28;;;;;;;4.70;2.80;;;;;;;17.44;85.39;97172.83;111743;1244;22588;-76
2023/09/16 05:31:00;;;;;;;3.70;2.40;;;;;;;17.91;84.56;97174.80;111783;1244;25210;-76
2023/09/16 05:33:29;;;;;;;3.60;2.80;;;;;;;18.32;83.26;97173.41;111760;1244;22522;-77
2023/09/16 05:35:57;;;;;;;3.40;2.50;;;;;;;18.26;80.08;97173.09;111766;1244;24179;-77
2023/09/16 05:38:26;;;;;;;4.10;2.70;;;;;;;17.74;79.41;97175.05;111711;1244;22501;-76
2023/09/16 05:40:54;;;;;;;4.20;2.40;;;;;;;17.54;79.72;97177.73;111788;1244;22555;-76
2023/09/16 05:43:24;;;;;;;3.90;2.70;;;;;;;17.59;79.67;97178.05;111752;1244;22669;-77
2023/09/16 05:45:52;;;;;;;3.40;2.60;;;;;;;17.84;79.63;97172.80;111748;1244;22509;-77
2023/09/16 05:48:21;;;;;;;3.50;2.50;;;;;;;18.26;79.91;97168.59;111730;1244;22537;-77
2023/09/16 05:50:59;;;;;;;3.70;2.70;;;;;;;18.59;78.64;97168.29;111726;1244;22628;-77
2023/09/16 05:53:29;;;;;;;3.30;2.30;;;;;;;18.74;77.93;97168.06;111793;1244;22533;-77
2023/09/16 05:56:04;;;;;;;3.60;2.30;;;;;;;18.91;76.83;97166.55;111736;1244;22530;-77
2023/09/16 05:58:32;;;;;;;4.40;2.30;;;;;;;18.99;75.66;97163.27;111707;1244;25378;-77
2023/09/16 06:01:01;;;;;;;4.10;2.40;;;;;;;18.93;75.20;97163.90;111749;1244;22524;-77
2023/09/16 06:03:30;;;;;;;4.90;2.70;;;;;;;19.02;75.13;97165.12;111767;1244;22584;-77
2023/09/16 06:06:00;;;;;;;3.00;2.40;;;;;;;19.18;74.45;97166.03;111759;1244;22469;-76
2023/09/16 06:08:28;;;;;;;2.50;2.10;;;;;;;19.40;73.49;97169.17;111767;1244;25355;-77
2023/09/16 06:11:00;;;;;;;3.40;2.20;;;;;;;19.38;72.57;97169.86;111763;1244;22504;-76
2023/09/16 06:13:28;;;;;;;4.70;2.20;;;;;;;19.36;71.86;97167.77;111778;1244;23118;-77
2023/09/16 06:15:57;;;;;;;4.40;2.80;;;;;;;19.26;71.61;97165.60;111772;1244;24251;-77
2023/09/16 06:18:26;;;;;;;3.00;2.30;;;;;;;19.14;71.12;97166.02;111741;1244;22499;-77
2023/09/16 06:20:57;;;;;;;3.10;2.40;;;;;;;19.00;70.78;97162.98;111774;1244;25355;-77
2023/09/16 06:23:28;;;;;;;3.80;2.10;;;;;;;18.88;70.52;97165.14;111772;1244;25297;-77
2023/09/16 06:25:59;;;;;;;4.20;2.40;;;;;;;18.72;70.38;97163.35;111779;1244;22522;-77
2023/09/16 06:28:28;;;;;;;5.80;2.40;;;;;;;18.64;70.36;97165.08;111755;1244;22581;-77
2023/09/16 06:30:57;;;;;;;3.90;2.30;;;;;;;18.67;70.51;97161.04;111773;1244;22583;-77
2023/09/16 06:33:26;;;;;;;3.80;2.20;;;;;;;18.87;70.79;97162.70;111747;1244;22506;-77
2023/09/16 06:35:55;;;;;;;5.20;2.10;;;;;;;19.10;70.57;97159.60;111791;1244;22508;-77
2023/09/16 06:38:23;;;;;;;4.30;2.30;;;;;;;19.20;70.04;97156.61;111736;1244;22509;-77
2023/09/16 06:40:54;;;;;;;4.20;2.50;;;;;;;19.34;69.20;97159.76;111795;1244;25212;-77
2023/09/16 06:43:25;;;;;;;2.90;2.30;;;;;;;19.10;68.63;97155.87;111767;1244;22498;-77
2023/09/16 06:45:54;;;;;;;4.30;2.70;;;;;;;19.09;68.96;97158.11;111774;1244;22521;-77
2023/09/16 06:48:26;;;;;;;4.40;2.80;;;;;;;18.99;68.52;97158.45;111742;1244;22551;-77
2023/09/16 06:50:57;;;;;;;3.00;2.00;;;;;;;18.95;69.56;97157.01;111736;1244;22491;-77
2023/09/16 06:53:28;;;;;;;3.20;2.40;;;;;;;19.10;69.28;97156.84;111784;1244;23950;-77
2023/09/16 06:55:57;;;;;;;4.20;2.60;;;;;;;18.97;68.79;97159.05;111842;1244;22547;-77
2023/09/16 06:58:28;;;;;;;4.70;2.70;;;;;;;19.03;69.40;97156.42;111751;1244;22503;-77
2023/09/16 07:00:57;;;;;;;3.50;2.10;;;;;;;19.50;69.37;97158.83;111756;1244;22503;-77
2023/09/16 07:03:28;;;;;;;4.90;2.20;;;;;;;19.89;69.41;97156.63;111767;1244;22932;-77
2023/09/16 07:05:59;;;;;;;3.70;2.50;;;;;;;20.02;67.75;97157.30;111756;1244;22525;-77
2023/09/16 07:08:30;;;;;;;4.70;3.40;;;;;;;19.78;67.53;97160.98;111717;1244;24185;-77
2023/09/16 07:11:00;;;;;;;3.70;2.60;;;;;;;19.58;67.14;97161.32;111750;1244;22493;-77
2023/09/16 07:13:29;;;;;;;6.70;2.50;;;;;;;19.52;67.29;97158.79;111773;1244;23275;-77
2023/09/16 07:16:00;;;;;;;5.00;2.80;;;;;;;19.39;67.08;97159.75;111729;1244;22923;-77
2023/09/16 07:18:28;;;;;;;4.20;2.80;;;;;;;19.17;66.81;97159.36;111758;1244;22556;-77
2023/09/16 07:20:58;;;;;;;4.50;2.70;;;;;;;18.92;67.12;97162.48;111788;1241;22531;-77
2023/09/16 07:23:28;;;;;;;3.70;2.60;;;;;;;18.90;67.72;97161.85;111806;1244;25209;-77
2023/09/16 07:26:00;;;;;;;3.80;2.70;;;;;;;18.90;67.63;97163.46;111828;1244;22499;-77
2023/09/16 07:28:29;;;;;;;4.10;2.60;;;;;;;19.09;68.19;97164.77;111812;1244;22556;-77
2023/09/16 07:31:00;;;;;;;3.90;2.50;;;;;;;19.16;68.22;97166.96;111765;1244;22490;-77
2023/09/16 07:33:29;;;;;;;3.90;2.60;;;;;;;19.43;67.86;97171.82;111768;1244;22485;-77
2023/09/16 07:35:58;;;;;;;3.70;2.50;;;;;;;19.58;68.39;97171.70;111818;1244;24013;-77
2023/09/16 07:38:27;;;;;;;4.70;2.60;;;;;;;19.97;68.27;97171.23;111387;1244;126168;-77
2023/09/16 07:40:56;;;;;;;2.80;2.40;;;;;;;20.24;67.96;97169.23;111786;1244;24182;-77
2023/09/16 07:43:26;;;;;;;3.80;2.40;;;;;;;20.49;67.13;97167.33;111770;1244;22518;-77
2023/09/16 07:45:58;;;;;;;4.10;2.70;;;;;;;20.18;65.77;97171.52;111769;1244;22614;-77
2023/09/16 07:48:27;;;;;;;3.50;2.50;;;;;;;19.95;66.60;97169.79;111782;1244;24243;-77
2023/09/16 07:50:55;;;;;;;7.50;2.90;;;;;;;20.14;66.67;97173.15;111787;1244;22530;-77
2023/09/16 07:53:24;;;;;;;4.80;2.80;;;;;;;20.20;66.38;97177.13;111770;1244;23435;-77
2023/09/16 07:55:53;;;;;;;4.80;2.90;;;;;;;20.24;66.50;97178.14;111791;1244;22604;-77
2023/09/16 07:58:21;;;;;;;4.30;2.50;;;;;;;20.33;66.34;97177.80;111775;1244;22533;-77
2023/09/16 08:00:51;;;;;;;2.80;2.30;;;;;;;20.33;65.72;97177.93;111787;1244;22845;-77
2023/09/16 08:03:19;;;;;;;3.90;2.30;;;;;;;20.51;66.73;97178.58;111770;1244;22979;-78
2023/09/16 08:05:50;;;;;;;3.70;2.20;;;;;;;20.79;66.31;97175.67;111803;1244;22513;-77
2023/09/16 08:08:19;;;;;;;5.00;2.80;;;;;;;21.17;66.65;97172.63;111781;1244;22493;-77
2023/09/16 08:10:50;;;;;;;2.40;2.00;;;;;;;21.59;66.66;97172.92;111841;1244;23786;-77
2023/09/16 08:13:18;;;;;;;4.30;2.80;;;;;;;21.96;66.58;97170.02;111775;1244;24118;-77
2023/09/16 08:15:47;;;;;;;6.40;2.80;;;;;;;22.17;66.34;97166.23;111806;1244;22608;-77
2023/09/16 08:18:16;;;;;;;4.10;2.50;;;;;;;22.45;65.97;97166.66;111794;1244;22533;-76
2023/09/16 08:20:45;;;;;;;4.40;2.80;;;;;;;22.33;63.71;97165.14;111826;1244;22597;-77
2023/09/16 08:23:15;;;;;;;2.70;2.20;;;;;;;22.09;64.07;97169.27;111793;1244;22545;-76
2023/09/16 08:25:42;;;;;;;;;;;;;;;22.22;64.20;97167.46;111793;1244;22642;-76
2023/09/16 08:28:10;;;;;;;2.60;2.30;;;;;;;22.07;62.69;97175.60;111789;1244;22494;-76
2023/09/16 08:30:39;;;;;;;3.60;2.70;;;;;;;21.77;62.90;97179.28;111780;1244;22496;-76
2023/09/16 08:33:09;;;;;;;3.30;2.60;;;;;;;21.76;63.40;97175.77;111766;1244;25254;-76
2023/09/16 08:35:37;;;;;;;6.00;2.90;;;;;;;21.89;63.47;97175.52;111783;1244;23118;-76
2023/09/16 08:38:10;;;;;;;2.90;2.40;;;;;;;22.03;63.74;97176.64;111748;1244;22556;-77
2023/09/16 08:40:39;;;;;;;3.40;2.50;;;;;;;22.17;63.01;97176.95;111790;1244;22581;-77
2023/09/16 08:43:17;;;;;;;5.90;2.50;;;;;;;22.23;63.11;97179.60;111778;1244;22587;-77
2023/09/16 08:45:49;;;;;;;4.10;2.70;;;;;;;22.38;63.18;97178.66;111819;1244;25314;-78
2023/09/16 08:48:25;;;;;;;5.70;2.80;;;;;;;22.48;62.95;97177.25;111775;1244;22509;-78
2023/09/16 08:50:56;;;;;;;4.50;2.90;;;;;;;22.58;63.42;97179.64;111825;1244;22513;-75
2023/09/16 08:53:28;;;;;;;4.70;2.80;;;;;;;22.77;63.09;97173.69;111815;1244;25371;-75
2023/09/16 08:55:59;;;;;;;4.70;2.70;;;;;;;22.82;62.69;97171.07;111812;1244;22526;-76
2023/09/16 08:58:29;;;;;;;4.90;2.80;;;;;;;22.78;62.46;97172.00;111813;1244;25918;-78
2023/09/16 09:00:59;;;;;;;5.20;2.90;;;;;;;22.67;61.96;97176.86;111766;1244;23924;-79
2023/09/16 09:03:31;;;;;;;4.60;2.80;;;;;;;22.68;61.92;97178.08;111809;1244;25242;-79
2023/09/16 09:06:00;;;;;;;4.90;3.10;;;;;;;22.61;61.24;97174.55;111801;1244;22497;-79
2023/09/16 09:08:29;;;;;;;3.30;2.60;;;;;;;22.65;62.38;97172.50;111789;1244;22512;-79
2023/09/16 09:11:00;;;;;;;5.00;2.70;;;;;;;22.81;62.26;97173.97;111823;1244;22481;-79
2023/09/16 09:13:32;;;;;;;5.00;2.90;;;;;;;23.04;62.90;97172.16;111787;1244;22501;-79
2023/09/16 09:16:03;;;;;;;5.20;3.10;;;;;;;23.21;62.17;97171.50;111792;1244;22506;-80
2023/09/16 09:18:35;;;;;;;4.50;2.80;;;;;;;23.29;62.67;97172.35;111761;1244;22641;-79
2023/09/16 09:21:05;;;;;;;5.70;3.30;;;;;;;23.41;62.61;97178.46;111835;1244;22491;-80
2023/09/16 09:23:34;;;;;;;4.00;2.90;;;;;;;23.50;62.44;97178.85;111783;1244;22475;-80
2023/09/16 09:26:04;;;;;;;5.50;3.20;;;;;;;23.56;62.32;97178.30;111777;1244;22505;-80
2023/09/16 09:28:34;;;;;;;6.20;2.90;;;;;;;23.57;61.85;97172.14;111771;1244;22510;-80
2023/09/16 09:31:02;;;;;;;6.00;3.00;;;;;;;23.51;61.70;97173.39;111842;1244;22479;-80
2023/09/16 09:33:31;;;;;;;5.50;3.40;;;;;;;23.48;61.74;97170.65;111781;1244;22958;-80
2023/09/16 09:36:14;;;;;;;4.20;2.90;;;;;;;23.49;61.63;97171.98;111773;1244;22513;-80
2023/09/16 09:38:44;;;;;;;7.00;4.40;;;;;;;23.34;61.33;97171.48;111812;1244;22551;-80
2023/09/16 09:41:14;;;;;;;7.50;4.80;;;;;;;23.23;61.41;97170.49;111803;1244;22532;-80
2023/09/16 09:43:43;;;;;;;8.90;5.80;;;;;;;23.14;61.74;97167.08;111828;1244;22706;-80
2023/09/16 09:46:14;;;;;;;6.10;3.50;;;;;;;23.08;61.47;97165.47;111785;1244;24031;-80
2023/09/16 09:48:43;;;;;;;5.80;3.60;;;;;;;22.73;60.87;97167.08;111779;1244;25248;-79
2023/09/16 09:51:17;;;;;;;4.60;3.20;;;;;;;22.47;61.14;97166.65;111802;1244;22491;-80
2023/09/16 09:53:47;;;;;;;4.60;3.50;;;;;;;22.29;62.06;97163.95;111815;1244;22506;-80
2023/09/16 09:56:16;;;;;;;5.70;3.80;;;;;;;22.37;62.92;97165.42;111814;1244;22510;-80
2023/09/16 09:58:46;;;;;;;7.40;4.50;;;;;;;22.53;63.59;97168.37;111768;1244;25224;-80
2023/09/16 10:01:15;;;;;;;;;;;;;;;22.70;63.94;97164.69;111785;1244;22483;-80
2023/09/16 10:03:48;;;;;;;5.00;3.40;;;;;;;22.71;63.97;97161.17;111781;1244;22499;-80
2023/09/16 10:06:19;;;;;;;5.40;4.20;;;;;;;22.82;64.44;97158.63;111830;1244;24195;-80
2023/09/16 10:08:47;;;;;;;4.20;3.80;;;;;;;22.93;64.48;97155.84;111820;1244;22507;-80
2023/09/16 10:11:20;;;;;;;6.00;4.10;;;;;;;22.92;64.06;97154.80;111748;1244;22492;-80
2023/09/16 10:13:48;;;;;;;6.90;4.40;;;;;;;22.82;63.89;97154.75;111816;1244;22522;-80
2023/09/16 10:16:18;;;;;;;4.90;4.00;;;;;;;22.83;64.62;97151.63;111817;1244;22712;-79
2023/09/16 10:18:47;;;;;;;4.30;3.70;;;;;;;22.88;64.73;97156.72;111800;1244;22493;-79
2023/09/16 10:21:17;;;;;;;5.00;4.10;;;;;;;22.91;64.98;97155.94;111803;1244;22517;-80
2023/09/16 10:23:47;;;;;;;4.60;4.00;;;;;;;22.99;65.67;97155.27;111816;1244;24198;-80
2023/09/16 10:26:17;;;;;;;5.20;3.60;;;;;;;23.10;65.50;97156.85;111774;1244;23502;-79
2023/09/16 10:28:49;;;;;;;12.10;4.90;;;;;;;23.05;65.19;97154.92;111782;1244;25381;-80
2023/09/16 10:31:20;;;;;;;6.40;4.60;;;;;;;23.00;64.97;97154.58;111792;1244;22506;-80
2023/09/16 10:33:50;;;;;;;5.00;4.20;;;;;;;22.88;64.24;97154.02;111834;1244;22573;-80
2023/09/16 10:36:20;;;;;;;4.40;4.00;;;;;;;22.71;64.73;97150.21;111798;1244;22540;-79
2023/09/16 10:38:50;;;;;;;5.30;4.10;;;;;;;22.73;65.55;97147.16;111802;1244;22443;-80
2023/09/16 10:41:18;;;;;;;;;;;;;;;22.83;65.91;97145.02;111560;1244;22488;-79
2023/09/16 10:43:47;;;;;;;6.20;4.40;;;;;;;22.81;65.35;97143.53;111781;1244;22485;-79
2023/09/16 10:46:21;;;;;;;4.90;4.40;;;;;;;22.60;64.68;97145.17;111773;1244;23003;-80
2023/09/16 10:48:51;;;;;;;5.20;3.70;;;;;;;22.41;65.38;97142.33;111785;1244;22514;-79
2023/09/16 10:51:23;;;;;;;4.80;4.30;;;;;;;22.38;65.60;97149.63;111803;1244;23588;-79
2023/09/16 10:54:00;;;;;;;6.00;4.50;;;;;;;22.36;65.63;97145.39;111820;1244;26486;-79
2023/09/16 10:56:34;;;;;;;5.30;4.70;;;;;;;22.28;66.07;97143.23;111793;1244;25422;-79
2023/09/16 10:59:08;;;;;;;6.80;4.30;;;;;;;22.30;67.02;97141.67;111755;1244;23520;-79
2023/09/16 11:01:47;;;;;;;6.10;4.30;;;;;;;22.34;66.54;97140.33;111763;1244;26403;-79
2023/09/16 11:04:17;;;;;;;5.60;4.50;;;;;;;22.23;66.68;97132.11;111782;1244;22508;-79
2023/09/16 11:06:50;;;;;;;6.80;4.60;;;;;;;22.28;67.49;97132.59;111764;1244;22544;-79
2023/09/16 11:09:23;;;;;;;8.50;4.60;;;;;;;22.43;67.68;97128.41;111780;1244;22543;-79
2023/09/16 11:11:53;;;;;;;5.20;4.70;;;;;;;22.45;66.75;97130.09;111833;1244;27607;-79
2023/09/16 11:14:21;;;;;;;;;;;;;;;22.35;66.69;97129.02;111795;1244;22490;-79
2023/09/16 11:16:51;;;;;;;6.70;4.70;;;;;;;22.34;67.25;97132.84;111768;1244;22504;-79
2023/09/16 11:19:22;;;;;;;4.90;4.20;;;;;;;22.40;67.32;97125.06;111785;1244;22533;-79
2023/09/16 11:21:50;;;;;;;6.50;4.40;;;;;;;22.52;67.87;97127.12;111783;1244;25360;-79
2023/09/16 11:24:19;;;;;;;6.40;4.80;;;;;;;22.67;67.99;97126.84;111659;1244;25349;-79
2023/09/16 11:26:51;;;;;;;6.90;5.40;;;;;;;22.79;67.70;97122.94;111558;1244;25443;-80
2023/09/16 11:29:22;;;;;;;5.10;4.30;;;;;;;22.80;67.23;97123.88;111517;1244;22507;-79
2023/09/16 11:31:50;;;;;;;6.10;5.30;;;;;;;22.79;67.16;97121.45;111572;1244;22484;-81
2023/09/16 11:34:22;;;;;;;7.20;5.40;;;;;;;22.82;67.60;97121.94;113624;1244;22339;-80
2023/09/16 11:36:54;;;;;;;8.50;5.90;;;;;;;22.84;67.60;97121.94;113591;1244;22310;-81
2023/09/16 11:39:32;;;;;;;7.50;5.40;;;;;;;22.84;67.37;97121.54;112267;1244;22510;-77